CYMJ

Moose Jaw Air Vice Marshal C. M. McEwen Airport

Moose Jaw, Saskatchewan, Canada
TAF CYMJ 212330Z 2200/2212 20010KT P6SM BKN030 BKN080 TEMPO 2200/2203 3SM -SHRA BR OVC020 FM220300 22010KT P6SM -SHRA FEW008 OVC020 BECMG 2203/2205 36012KT 3SM -SHRA BR BKN008 OVC020 FM221000 06010KT 3SM -FZRA BR BKN008 OVC020 TEMPO 2210/2212 6SM -RA BR SCT008 OVC020 RMK NXT FCST BY 220600Z
Issued Valid From Valid To
Sep-21 @ 23:30 UTC
(4 hours ago)
Sep-22 @ 00:00 UTC
(4 hours ago)
Sep-22 @ 12:00 UTC
(in 8 hours)
to
to
to
to
to
to
TAF CYMJ 212330Z 2200/2212 20010KT P6SM BKN030 BKN080 TEMPO 2200/2203 3SM -SHRA BR OVC020 FM220300 22010KT P6SM -SHRA FEW008 OVC020 BECMG 2203/2205 36012KT 3SM -SHRA BR BKN008 OVC020 FM221000 06010KT 3SM -FZRA BR BKN008 OVC020 TEMPO 2210/2212 6SM -RA BR SCT008 OVC020 RMK NXT FCST BY 220600Z
Issued Sep-21 @ 23:30 UTC
(4 hours ago)
Valid From Sep-22 @ 00:00 UTC
(4 hours ago)
Valid To Sep-22 @ 12:00 UTC
(in 8 hours)
-
-
-
-
-
-